createdAt,value
2022-08-21T00:01:54.254Z,6.32
2022-08-21T00:04:22.477Z,6.00
2022-08-21T00:06:51.263Z,6.20
2022-08-21T00:09:19.705Z,6.05
2022-08-21T00:11:48.095Z,6.78
2022-08-21T00:14:15.797Z,5.93
2022-08-21T00:16:42.725Z,7.72
2022-08-21T00:19:09.939Z,6.13
2022-08-21T00:21:40.260Z,6.40
2022-08-21T00:24:08.430Z,6.53
2022-08-21T00:26:35.412Z,7.53
2022-08-21T00:29:05.013Z,7.28
2022-08-21T00:31:32.206Z,6.60
2022-08-21T00:34:00.864Z,6.75
2022-08-21T00:36:28.498Z,6.43
2022-08-21T00:38:55.688Z,7.50
2022-08-21T00:41:38.306Z,7.07
2022-08-21T00:44:10.953Z,6.97
2022-08-21T00:46:38.608Z,7.75
2022-08-21T00:49:07.290Z,7.60
2022-08-21T00:51:44.652Z,6.78
2022-08-21T00:54:18.311Z,6.40
2022-08-21T00:56:50.026Z,6.53
2022-08-21T00:59:20.141Z,6.68
2022-08-21T01:01:47.607Z,6.75
2022-08-21T01:04:16.652Z,7.10
2022-08-21T01:06:43.992Z,8.25
2022-08-21T01:09:11.186Z,6.63
2022-08-21T01:11:38.627Z,7.07
2022-08-21T01:14:05.575Z,6.95
2022-08-21T01:16:34.123Z,7.05
2022-08-21T01:19:01.194Z,7.87
2022-08-21T01:21:29.444Z,7.47
2022-08-21T01:23:57.802Z,7.40
2022-08-21T01:26:33.893Z,6.75
2022-08-21T01:29:12.860Z,7.35
2022-08-21T01:31:40.298Z,7.80
2022-08-21T01:34:08.171Z,7.47
2022-08-21T01:36:35.576Z,7.47
2022-08-21T01:39:04.700Z,7.75
2022-08-21T01:41:31.923Z,7.60
2022-08-21T01:43:58.748Z,6.82
2022-08-21T01:46:25.763Z,7.10
2022-08-21T01:48:52.898Z,7.60
2022-08-21T01:51:19.800Z,7.82
2022-08-21T01:53:46.784Z,7.10
2022-08-21T01:56:16.442Z,7.65
2022-08-21T01:58:45.531Z,8.13
2022-08-21T02:01:12.823Z,8.38
2022-08-21T02:03:40.271Z,8.88
2022-08-21T02:06:08.883Z,6.93
2022-08-21T02:08:35.694Z,7.95
2022-08-21T02:11:02.672Z,7.68
2022-08-21T02:13:29.650Z,7.60
2022-08-21T02:15:56.704Z,8.68
2022-08-21T02:18:24.190Z,7.38
2022-08-21T02:20:54.120Z,7.35
2022-08-21T02:23:26.967Z,7.85
2022-08-21T02:26:02.644Z,6.88
2022-08-21T02:28:30.950Z,7.25
2022-08-21T02:30:58.098Z,7.82
2022-08-21T02:33:26.159Z,7.78
2022-08-21T02:35:54.112Z,8.38
2022-08-21T02:38:31.612Z,8.68
2022-08-21T02:40:58.787Z,7.68
2022-08-21T02:43:27.960Z,8.50
2022-08-21T02:45:57.039Z,9.27
2022-08-21T02:48:27.136Z,8.70
2022-08-21T02:50:59.863Z,8.48
2022-08-21T02:53:28.396Z,8.38
2022-08-21T02:55:57.256Z,8.67
2022-08-21T02:58:28.109Z,8.60
2022-08-21T03:00:55.742Z,9.20
2022-08-21T03:03:23.268Z,8.68
2022-08-21T03:05:51.016Z,8.40
2022-08-21T03:08:19.390Z,8.85
2022-08-21T03:10:49.587Z,8.70
2022-08-21T03:13:17.070Z,9.10
2022-08-21T03:15:44.496Z,9.38
2022-08-21T03:18:13.011Z,8.25
2022-08-21T03:20:41.924Z,8.87
2022-08-21T03:23:14.174Z,8.88
2022-08-21T03:25:44.434Z,8.98
2022-08-21T03:28:19.735Z,9.27
2022-08-21T03:30:48.048Z,9.45
2022-08-21T03:33:15.901Z,8.27
2022-08-21T03:35:45.479Z,8.23
2022-08-21T03:38:14.024Z,7.68
2022-08-21T03:40:42.345Z,9.07
2022-08-21T03:43:10.610Z,8.63
2022-08-21T03:45:38.441Z,8.33
2022-08-21T03:48:07.768Z,8.63
2022-08-21T03:50:40.680Z,8.65
2022-08-21T03:53:15.657Z,8.23
2022-08-21T03:55:46.555Z,8.90
2022-08-21T03:58:16.326Z,8.18
2022-08-21T04:00:46.123Z,7.45
2022-08-21T04:03:13.327Z,8.98
2022-08-21T04:05:41.240Z,8.27
2022-08-21T04:08:08.508Z,7.53
2022-08-21T04:10:37.053Z,9.23
2022-08-21T04:13:05.499Z,7.80
2022-08-21T04:15:32.742Z,8.15
2022-08-21T04:18:00.187Z,7.53
2022-08-21T04:20:27.925Z,7.68
2022-08-21T04:22:55.428Z,7.95
2022-08-21T04:25:24.309Z,7.85
2022-08-21T04:27:52.151Z,6.97
2022-08-21T04:30:19.622Z,10.13
2022-08-21T04:32:49.737Z,8.45
2022-08-21T04:35:22.056Z,7.45
2022-08-21T04:37:49.900Z,6.97
2022-08-21T04:40:17.953Z,6.75
2022-08-21T04:42:50.265Z,8.77
2022-08-21T04:45:24.531Z,7.65
2022-08-21T04:47:53.454Z,8.15
2022-08-21T04:50:28.081Z,7.88
2022-08-21T04:53:06.186Z,7.93
2022-08-21T04:55:33.641Z,7.32
2022-08-21T04:58:01.105Z,8.07
2022-08-21T05:00:28.246Z,7.65
2022-08-21T05:03:00.006Z,7.07
2022-08-21T05:05:29.984Z,7.85
2022-08-21T05:07:58.463Z,8.15
2022-08-21T05:10:26.650Z,8.85
2022-08-21T05:12:54.038Z,8.10
2022-08-21T05:15:21.822Z,7.82
2022-08-21T05:17:53.578Z,7.90
2022-08-21T05:20:27.491Z,7.35
2022-08-21T05:22:55.465Z,8.82
2022-08-21T05:25:23.879Z,7.15
2022-08-21T05:27:52.325Z,7.82
2022-08-21T05:30:20.551Z,6.60
2022-08-21T05:32:48.738Z,7.65
2022-08-21T05:35:16.287Z,8.07
2022-08-21T05:37:43.279Z,7.18
2022-08-21T05:40:21.720Z,7.82
2022-08-21T05:42:55.409Z,8.10
2022-08-21T05:45:41.701Z,7.65
2022-08-21T05:48:12.393Z,7.25
2022-08-21T05:50:39.778Z,7.22
2022-08-21T05:53:07.460Z,8.68
2022-08-21T05:55:36.359Z,6.82
2022-08-21T05:58:03.963Z,7.60
2022-08-21T06:00:31.223Z,8.95
2022-08-21T06:02:58.104Z,7.38
2022-08-21T06:05:36.658Z,8.27
2022-08-21T06:08:05.016Z,7.60
2022-08-21T06:10:32.289Z,7.15
2022-08-21T06:12:59.557Z,7.32
2022-08-21T06:15:26.734Z,6.53
2022-08-21T06:17:54.736Z,6.40
2022-08-21T06:20:22.487Z,7.32
2022-08-21T06:22:49.490Z,7.25
2022-08-21T06:25:16.504Z,7.53
2022-08-21T06:27:43.409Z,6.72
2022-08-21T06:30:10.953Z,7.65
2022-08-21T06:32:38.571Z,9.05
2022-08-21T06:35:07.042Z,7.13
2022-08-21T06:37:34.068Z,8.07
2022-08-21T06:40:01.041Z,6.70
2022-08-21T06:42:29.138Z,7.05
2022-08-21T06:44:57.558Z,8.13
2022-08-21T06:47:24.396Z,8.38
2022-08-21T06:49:51.283Z,8.10
2022-08-21T06:52:18.220Z,6.88
2022-08-21T06:54:45.198Z,6.97
2022-08-21T06:57:12.124Z,7.22
2022-08-21T06:59:39.072Z,6.97
2022-08-21T07:02:06.000Z,7.40
2022-08-21T07:04:33.107Z,7.68
2022-08-21T07:07:00.403Z,8.57
2022-08-21T07:09:27.755Z,7.25
2022-08-21T07:11:56.648Z,6.68
2022-08-21T07:14:23.603Z,7.20
2022-08-21T07:16:52.068Z,7.45
2022-08-21T07:19:19.789Z,8.17
2022-08-21T07:21:47.470Z,6.80
2022-08-21T07:24:14.687Z,6.20
2022-08-21T07:26:41.725Z,7.28
2022-08-21T07:29:08.631Z,6.63
2022-08-21T07:31:35.748Z,6.35
2022-08-21T07:34:03.072Z,7.03
2022-08-21T07:36:29.943Z,7.20
2022-08-21T07:39:00.296Z,6.97
2022-08-21T07:41:30.041Z,6.35
2022-08-21T07:44:00.916Z,7.88
2022-08-21T07:46:28.331Z,7.55
2022-08-21T07:48:55.666Z,9.48
2022-08-21T07:51:27.802Z,5.55
2022-08-21T07:53:56.399Z,6.25
2022-08-21T07:56:23.704Z,6.72
2022-08-21T07:58:53.263Z,6.35
2022-08-21T08:01:21.062Z,5.90
2022-08-21T08:03:48.856Z,6.25
2022-08-21T08:06:17.567Z,6.28
2022-08-21T08:08:45.683Z,5.13
2022-08-21T08:11:16.087Z,5.55
2022-08-21T08:13:47.577Z,6.00
2022-08-21T08:16:15.051Z,5.45
2022-08-21T08:18:43.056Z,5.35
2022-08-21T08:21:11.232Z,4.60
2022-08-21T08:23:38.393Z,4.60
2022-08-21T08:26:05.567Z,4.57
2022-08-21T08:28:33.512Z,5.50
2022-08-21T08:31:01.384Z,4.60
2022-08-21T08:33:28.562Z,5.47
2022-08-21T08:35:55.882Z,4.88
2022-08-21T08:38:24.860Z,5.25
2022-08-21T08:41:17.496Z,5.03
2022-08-21T08:43:51.635Z,5.20
2022-08-21T08:46:26.849Z,4.95
2022-08-21T08:49:23.104Z,3.95
2022-08-21T08:51:55.740Z,4.78
2022-08-21T08:54:32.500Z,4.15
2022-08-21T08:57:01.395Z,4.78
2022-08-21T08:59:38.809Z,4.72
2022-08-21T09:02:06.662Z,5.65
2022-08-21T09:04:33.564Z,5.70
2022-08-21T09:07:11.514Z,6.57
2022-08-21T09:10:03.020Z,5.30
2022-08-21T09:12:51.149Z,6.25
2022-08-21T09:15:39.896Z,5.32
2022-08-21T09:18:12.762Z,6.93
2022-08-21T09:20:58.975Z,5.20
2022-08-21T09:23:37.932Z,5.45
2022-08-21T09:26:19.214Z,4.25
2022-08-21T09:28:48.633Z,4.28
2022-08-21T09:31:24.181Z,5.15
2022-08-21T09:33:51.252Z,5.28
2022-08-21T09:36:50.156Z,4.70
2022-08-21T09:39:30.206Z,5.97
2022-08-21T09:42:05.077Z,4.53
2022-08-21T09:44:34.499Z,3.75
2022-08-21T09:47:01.869Z,3.15
2022-08-21T09:49:33.612Z,2.50
2022-08-21T09:52:01.797Z,3.22
2022-08-21T09:54:36.207Z,2.55
2022-08-21T09:57:27.517Z,3.25
2022-08-21T09:59:55.912Z,3.03
2022-08-21T10:02:27.595Z,2.50
2022-08-21T10:05:18.257Z,3.25
2022-08-21T10:07:45.604Z,2.67
2022-08-21T10:10:19.966Z,2.78
2022-08-21T10:12:51.119Z,3.50
2022-08-21T10:15:28.749Z,2.15
2022-08-21T10:18:19.522Z,2.80
2022-08-21T10:21:05.972Z,2.35
2022-08-21T10:23:40.590Z,2.13
2022-08-21T10:26:36.952Z,2.28
2022-08-21T10:29:12.245Z,2.40
2022-08-21T10:32:26.265Z,1.70
2022-08-21T10:34:53.590Z,2.28
2022-08-21T10:37:48.202Z,1.90
2022-08-21T10:40:27.613Z,2.42
2022-08-21T10:43:16.805Z,2.42
2022-08-21T10:46:01.519Z,1.40
2022-08-21T10:48:40.468Z,2.85
2022-08-21T10:51:36.541Z,1.83
2022-08-21T10:54:12.596Z,1.40
2022-08-21T10:56:42.418Z,2.47
2022-08-21T10:59:38.541Z,1.75
2022-08-21T11:02:43.579Z,1.80
2022-08-21T11:05:52.836Z,1.73
2022-08-21T11:08:22.502Z,2.15
2022-08-21T11:11:29.395Z,2.10
2022-08-21T11:14:05.814Z,1.88
2022-08-21T11:16:50.057Z,1.65
2022-08-21T11:19:46.089Z,1.88
2022-08-21T11:22:36.059Z,2.40
2022-08-21T11:25:21.489Z,1.75
2022-08-21T11:28:10.945Z,2.13
2022-08-21T11:30:59.053Z,1.65
2022-08-21T11:33:49.007Z,1.88
2022-08-21T11:36:46.969Z,1.90
2022-08-21T11:39:17.230Z,1.52
2022-08-21T11:42:12.756Z,2.10
2022-08-21T11:44:48.487Z,1.90
2022-08-21T11:47:26.084Z,1.85
2022-08-21T11:50:25.646Z,1.90
2022-08-21T11:53:05.404Z,1.75
2022-08-21T11:55:47.592Z,1.67
2022-08-21T11:58:29.328Z,1.73
2022-08-21T12:01:13.783Z,2.40
2022-08-21T12:03:45.442Z,1.77
2022-08-21T12:06:24.303Z,1.88
2022-08-21T12:09:03.927Z,1.80
2022-08-21T12:11:32.878Z,1.60
2022-08-21T12:14:07.510Z,1.92
2022-08-21T12:16:40.856Z,1.85
2022-08-21T12:19:29.264Z,1.90
2022-08-21T12:22:06.203Z,2.08
2022-08-21T12:24:49.758Z,1.95
2022-08-21T12:27:32.272Z,1.90
2022-08-21T12:30:05.057Z,2.17
2022-08-21T12:32:46.274Z,1.83
2022-08-21T12:35:25.327Z,1.90
2022-08-21T12:38:30.094Z,2.10
2022-08-21T12:41:27.487Z,2.00
2022-08-21T12:44:09.855Z,2.70
2022-08-21T12:46:52.304Z,1.98
2022-08-21T12:49:45.526Z,2.47
2022-08-21T12:52:45.973Z,2.22
2022-08-21T12:55:26.640Z,1.67
2022-08-21T12:57:53.506Z,1.95
2022-08-21T13:00:26.082Z,1.77
2022-08-21T13:02:55.485Z,1.60
2022-08-21T13:05:42.704Z,1.70
2022-08-21T13:08:13.299Z,2.40
2022-08-21T13:10:42.021Z,1.83
2022-08-21T13:15:47.583Z,1.88
2022-08-21T13:18:28.557Z,2.03
2022-08-21T13:21:06.389Z,1.65
2022-08-21T13:23:33.941Z,1.63
2022-08-21T13:26:01.002Z,1.85
2022-08-21T13:28:35.175Z,1.80
2022-08-21T13:31:04.852Z,1.60
2022-08-21T13:33:37.406Z,1.70
2022-08-21T13:36:26.087Z,1.67
2022-08-21T13:38:57.114Z,1.95
2022-08-21T13:41:31.851Z,1.65
2022-08-21T13:44:00.625Z,1.63
2022-08-21T13:46:32.356Z,2.10
2022-08-21T13:49:00.810Z,1.70
2022-08-21T13:51:28.578Z,1.60
2022-08-21T13:53:56.701Z,2.25
2022-08-21T13:56:30.533Z,2.08
2022-08-21T13:58:58.814Z,2.03
2022-08-21T14:01:31.611Z,1.98
2022-08-21T14:04:08.386Z,1.80
2022-08-21T14:06:38.595Z,1.70
2022-08-21T14:09:34.064Z,1.88
2022-08-21T14:12:04.513Z,1.73
2022-08-21T14:14:35.017Z,1.67
2022-08-21T14:17:24.463Z,2.85
2022-08-21T14:19:52.579Z,1.70
2022-08-21T14:22:42.278Z,2.25
2022-08-21T14:25:14.479Z,2.20
2022-08-21T14:27:59.724Z,1.90
2022-08-21T14:30:33.107Z,2.15
2022-08-21T14:33:00.759Z,2.28
2022-08-21T14:35:29.468Z,1.80
2022-08-21T14:37:56.931Z,2.30
2022-08-21T14:40:25.840Z,2.22
2022-08-21T14:45:27.096Z,1.40
2022-08-21T14:47:55.252Z,1.60
2022-08-21T14:50:22.433Z,1.67
2022-08-21T14:52:49.526Z,1.60
2022-08-21T14:55:18.839Z,1.58
2022-08-21T14:57:49.943Z,2.40
2022-08-21T15:00:20.676Z,1.83
2022-08-21T15:02:48.027Z,1.70
2022-08-21T15:05:16.880Z,2.00
2022-08-21T15:07:58.618Z,1.80
2022-08-21T15:10:25.548Z,2.13
2022-08-21T15:12:52.675Z,1.85
2022-08-21T15:15:19.765Z,1.98
2022-08-21T15:17:48.521Z,1.55
2022-08-21T15:22:47.503Z,1.80
2022-08-21T15:25:24.907Z,1.80
2022-08-21T15:27:52.303Z,2.10
2022-08-21T15:30:19.424Z,2.00
2022-08-21T15:32:46.445Z,2.00
2022-08-21T15:35:13.311Z,2.10
2022-08-21T15:37:40.492Z,2.33
2022-08-21T15:40:08.753Z,2.17
2022-08-21T15:42:36.016Z,2.67
2022-08-21T15:45:04.804Z,2.33
2022-08-21T15:47:37.744Z,1.75
2022-08-21T15:50:08.371Z,2.53
2022-08-21T15:52:36.023Z,2.13
2022-08-21T15:55:06.275Z,1.60
2022-08-21T15:57:35.022Z,2.50
2022-08-21T16:00:14.371Z,2.20
2022-08-21T16:02:45.647Z,2.08
2022-08-21T16:05:13.138Z,1.65
2022-08-21T16:07:40.602Z,2.20
2022-08-21T16:10:08.290Z,2.08
2022-08-21T16:12:39.656Z,1.58
2022-08-21T16:15:20.435Z,2.00
2022-08-21T16:17:49.864Z,1.63
2022-08-21T16:20:21.377Z,2.00
2022-08-21T16:22:49.171Z,1.80
2022-08-21T16:25:17.766Z,2.80
2022-08-21T16:27:48.942Z,2.00
2022-08-21T16:30:17.273Z,2.03
2022-08-21T16:32:45.328Z,2.40
2022-08-21T16:35:15.268Z,2.00
2022-08-21T16:37:42.814Z,1.95
2022-08-21T16:40:10.638Z,2.17
2022-08-21T16:42:40.453Z,1.90
2022-08-21T16:45:16.612Z,1.70
2022-08-21T16:47:44.687Z,2.03
2022-08-21T16:50:16.170Z,1.95
2022-08-21T16:52:43.232Z,2.10
2022-08-21T16:55:10.232Z,2.58
2022-08-21T16:57:38.105Z,2.10
2022-08-21T17:00:16.166Z,2.30
2022-08-21T17:02:48.994Z,1.97
2022-08-21T17:05:16.380Z,2.75
2022-08-21T17:07:44.008Z,2.50
2022-08-21T17:10:13.612Z,3.17
2022-08-21T17:12:43.144Z,1.90
2022-08-21T17:15:21.858Z,3.28
2022-08-21T17:17:49.642Z,2.55
2022-08-21T17:20:17.700Z,2.35
2022-08-21T17:22:44.627Z,3.65
2022-08-21T17:25:11.591Z,2.22
2022-08-21T17:27:39.941Z,2.00
2022-08-21T17:30:08.251Z,2.35
2022-08-21T17:32:35.298Z,2.57
2022-08-21T17:35:02.755Z,5.55
2022-08-21T17:37:29.801Z,2.05
2022-08-21T17:39:57.455Z,2.70
2022-08-21T17:42:25.262Z,3.75
2022-08-21T17:44:52.371Z,2.03
2022-08-21T17:47:19.341Z,2.60
2022-08-21T17:49:46.339Z,2.15
2022-08-21T17:52:13.386Z,2.67
2022-08-21T17:54:41.231Z,2.10
2022-08-21T17:57:13.000Z,2.50
2022-08-21T17:59:40.308Z,2.17
2022-08-21T18:02:09.936Z,2.33
2022-08-21T18:04:46.909Z,2.60
2022-08-21T18:07:30.756Z,2.38
2022-08-21T18:10:04.415Z,2.72
2022-08-21T18:12:32.901Z,2.40
2022-08-21T18:15:01.334Z,1.98
2022-08-21T18:17:30.361Z,2.07
2022-08-21T18:19:59.677Z,2.13
2022-08-21T18:22:27.537Z,2.05
2022-08-21T18:24:54.523Z,2.25
2022-08-21T18:27:24.639Z,2.53
2022-08-21T18:29:56.960Z,2.30
2022-08-21T18:32:31.547Z,2.10
2022-08-21T18:35:01.782Z,2.63
2022-08-21T18:37:29.396Z,2.13
2022-08-21T18:39:56.539Z,2.50
2022-08-21T18:42:28.324Z,3.15
2022-08-21T18:45:01.702Z,3.00
2022-08-21T18:47:33.753Z,2.65
2022-08-21T18:50:01.471Z,2.22
2022-08-21T18:52:28.843Z,3.10
2022-08-21T18:54:58.123Z,2.70
2022-08-21T18:57:33.452Z,2.60
2022-08-21T19:00:01.550Z,2.72
2022-08-21T19:02:29.101Z,2.85
2022-08-21T19:04:56.231Z,2.53
2022-08-21T19:07:23.397Z,3.47
2022-08-21T19:10:14.127Z,2.72
2022-08-21T19:12:39.011Z,2.40
2022-08-21T19:15:09.391Z,2.50
2022-08-21T19:17:37.406Z,2.38
2022-08-21T19:20:16.751Z,3.05
2022-08-21T19:22:53.582Z,2.90
2022-08-21T19:25:33.774Z,3.03
2022-08-21T19:28:11.071Z,2.05
2022-08-21T19:30:42.087Z,2.88
2022-08-21T19:33:25.780Z,2.50
2022-08-21T19:35:53.483Z,2.10
2022-08-21T19:38:21.183Z,2.67
2022-08-21T19:40:48.942Z,2.50
2022-08-21T19:43:16.603Z,2.25
2022-08-21T19:45:53.141Z,2.17
2022-08-21T19:48:20.593Z,3.10
2022-08-21T19:50:47.605Z,3.05
2022-08-21T19:53:14.442Z,2.53
2022-08-21T19:55:45.772Z,2.40
2022-08-21T19:58:24.521Z,3.42
2022-08-21T20:00:51.584Z,3.17
2022-08-21T20:03:18.493Z,3.83
2022-08-21T20:05:48.324Z,3.10
2022-08-21T20:08:20.455Z,4.53
2022-08-21T20:10:49.940Z,4.60
2022-08-21T20:16:12.308Z,3.90
2022-08-21T20:18:40.595Z,3.75
2022-08-21T20:26:19.507Z,4.03
2022-08-21T20:28:46.595Z,3.45
2022-08-21T20:31:19.602Z,3.72
2022-08-21T20:33:49.550Z,3.03
2022-08-21T20:36:17.847Z,3.47
2022-08-21T20:38:44.959Z,4.10
2022-08-21T20:44:05.245Z,11.25
2022-08-21T20:46:33.123Z,4.97
2022-08-21T20:49:00.810Z,4.13
2022-08-21T20:51:45.332Z,4.18
2022-08-21T20:54:52.459Z,3.83
2022-08-21T20:57:25.873Z,4.93
2022-08-21T20:59:55.520Z,11.88
2022-08-21T21:02:36.270Z,15.55
2022-08-21T21:05:24.596Z,6.38
2022-08-21T21:08:07.045Z,4.20
2022-08-21T21:10:48.687Z,4.28
2022-08-21T21:13:34.793Z,3.58
2022-08-21T21:16:12.790Z,3.05
2022-08-21T21:18:48.162Z,4.40
2022-08-21T21:24:31.717Z,3.33
2022-08-21T21:27:12.263Z,4.03
2022-08-21T21:29:42.097Z,4.30
2022-08-21T21:32:09.177Z,3.45
2022-08-21T21:34:46.260Z,3.38
2022-08-21T21:37:37.350Z,3.92
2022-08-21T21:40:42.303Z,3.60
2022-08-21T21:43:18.479Z,3.95
2022-08-21T21:46:29.839Z,3.58
2022-08-21T21:52:12.805Z,4.25
2022-08-21T21:55:00.977Z,4.10
2022-08-21T21:57:58.390Z,3.95
2022-08-21T22:00:28.089Z,4.47
2022-08-21T22:03:14.376Z,4.03
2022-08-21T22:05:50.457Z,4.85
2022-08-21T22:08:39.199Z,4.10
2022-08-21T22:11:24.176Z,4.85
2022-08-21T22:14:13.508Z,4.38
2022-08-21T22:16:43.590Z,4.15
2022-08-21T22:19:18.079Z,4.50
2022-08-21T22:21:52.000Z,4.30
2022-08-21T22:24:28.570Z,3.90
2022-08-21T22:27:25.238Z,4.53
2022-08-21T22:29:57.677Z,4.00
2022-08-21T22:32:26.988Z,4.15
2022-08-21T22:37:49.651Z,5.10
2022-08-21T22:40:42.597Z,4.40
2022-08-21T22:43:22.472Z,4.97
2022-08-21T22:46:04.128Z,4.82
2022-08-21T22:48:37.060Z,5.22
2022-08-21T22:51:10.122Z,5.57
2022-08-21T22:53:42.382Z,4.80
2022-08-21T22:56:10.671Z,5.20
2022-08-21T22:58:53.623Z,4.03
2022-08-21T23:01:21.070Z,4.80
2022-08-21T23:03:54.309Z,5.32
2022-08-21T23:06:27.720Z,5.07
2022-08-21T23:08:55.126Z,4.95
2022-08-21T23:11:39.739Z,4.40
2022-08-21T23:14:07.591Z,5.53
2022-08-21T23:16:56.673Z,4.45
2022-08-21T23:19:51.171Z,5.05
2022-08-21T23:22:42.715Z,4.75
2022-08-21T23:25:40.535Z,3.90
2022-08-21T23:28:07.882Z,3.83
2022-08-21T23:31:01.010Z,3.75
2022-08-21T23:33:46.380Z,4.32
2022-08-21T23:36:47.025Z,4.40
2022-08-21T23:39:50.243Z,4.45
2022-08-21T23:42:52.597Z,4.70
2022-08-21T23:45:33.034Z,3.97
2022-08-21T23:48:39.106Z,5.25
2022-08-21T23:51:13.508Z,3.88
2022-08-21T23:54:05.322Z,3.70
2022-08-21T23:56:55.377Z,4.03
2022-08-21T23:59:48.689Z,4.45
